Time;durP1;ratioP1;P1;durP2;ratioP2;P2;SDS_P1;SDS_P2;PMS_P1;PMS_P2;Temp;Humidity;BMP_temperature;BMP_pressure;BME280_temperature;BME280_humidity;BME280_pressure;Samples;Min_cycle;Max_cycle;Signal;HPM_P1;HPM_P2
2024/01/07 00:01:03;;;;;;;23.27;14.00;;;5.70;72.50;;;;;;5091255;28;20103;-71
2024/01/07 00:03:28;;;;;;;24.50;15.50;;;5.70;72.60;;;;;;5091983;28;20015;-71
2024/01/07 00:05:54;;;;;;;23.47;13.73;;;5.70;72.60;;;;;;5089704;28;20024;-71
2024/01/07 00:08:21;;;;;;;22.67;14.53;;;5.70;72.60;;;;;;5103874;28;20020;-71
2024/01/07 00:10:46;;;;;;;23.23;14.80;;;5.70;72.60;;;;;;5091732;28;20024;-71
2024/01/07 00:13:12;;;;;;;24.63;14.03;;;5.70;72.70;;;;;;5092581;28;20104;-71
2024/01/07 00:15:38;;;;;;;21.77;14.23;;;5.70;72.70;;;;;;5091968;28;20432;-71
2024/01/07 00:18:04;;;;;;;24.77;14.20;;;5.70;72.70;;;;;;5092348;28;20036;-71
2024/01/07 00:20:29;;;;;;;23.13;15.17;;;5.70;72.80;;;;;;5091634;28;20032;-71
2024/01/07 00:22:56;;;;;;;23.97;15.10;;;5.60;72.80;;;;;;5091525;28;20047;-71
2024/01/07 00:25:22;;;;;;;23.43;14.10;;;5.60;72.90;;;;;;5106689;28;20024;-71
2024/01/07 00:27:47;;;;;;;24.57;14.97;;;5.70;73.00;;;;;;5090675;28;20028;-71
2024/01/07 00:30:13;;;;;;;26.03;15.57;;;5.70;73.00;;;;;;5092528;28;20019;-71
2024/01/07 00:32:39;;;;;;;24.03;14.70;;;5.60;72.90;;;;;;5090605;28;20032;-71
2024/01/07 00:35:05;;;;;;;25.30;15.80;;;5.60;73.00;;;;;;5083848;28;20034;-71
2024/01/07 00:37:31;;;;;;;27.27;16.30;;;5.60;73.00;;;;;;5093370;28;20463;-71
2024/01/07 00:39:57;;;;;;;25.83;16.00;;;5.60;73.10;;;;;;5095511;28;20036;-71
2024/01/07 00:42:22;;;;;;;26.27;16.00;;;5.60;73.20;;;;;;5095878;28;20035;-70
2024/01/07 00:44:49;;;;;;;27.23;14.83;;;5.60;73.20;;;;;;5084803;28;20107;-70
2024/01/07 00:47:16;;;;;;;29.00;16.97;;;5.60;73.20;;;;;;5095104;28;20402;-70
2024/01/07 00:49:42;;;;;;;31.63;17.87;;;5.60;73.30;;;;;;5095489;28;20119;-71
2024/01/07 00:52:08;;;;;;;33.20;19.07;;;5.60;73.30;;;;;;5090392;28;20498;-70
2024/01/07 00:54:34;;;;;;;33.10;18.67;;;5.60;73.40;;;;;;5092597;28;20031;-70
2024/01/07 00:57:00;;;;;;;29.90;17.33;;;5.60;73.40;;;;;;5078936;28;20039;-70
2024/01/07 00:59:27;;;;;;;32.83;17.77;;;5.60;73.40;;;;;;5095159;28;20020;-70
2024/01/07 01:01:53;;;;;;;29.70;17.13;;;5.60;73.40;;;;;;5097596;28;20078;-70
2024/01/07 01:04:19;;;;;;;34.20;17.37;;;5.60;73.40;;;;;;5104898;28;20390;-70
2024/01/07 01:06:45;;;;;;;29.83;15.97;;;5.60;73.30;;;;;;5096334;28;20449;-70
2024/01/07 01:09:11;;;;;;;27.60;15.13;;;5.60;73.30;;;;;;5096111;28;20025;-70
2024/01/07 01:11:38;;;;;;;28.60;16.67;;;5.60;73.20;;;;;;5096183;28;20040;-70
2024/01/07 01:14:04;;;;;;;27.47;15.93;;;5.60;73.30;;;;;;5096062;28;20035;-70
2024/01/07 01:16:29;;;;;;;26.17;16.27;;;5.60;73.20;;;;;;5093877;28;20449;-70
2024/01/07 01:18:55;;;;;;;28.27;16.47;;;5.60;73.10;;;;;;5095248;28;20036;-70
2024/01/07 01:21:21;;;;;;;27.77;16.70;;;5.60;73.00;;;;;;5095468;28;20049;-70
2024/01/07 01:23:47;;;;;;;27.23;15.43;;;5.60;73.00;;;;;;5095784;28;20032;-70
2024/01/07 01:26:13;;;;;;;24.13;14.43;;;5.60;72.90;;;;;;5095614;28;20031;-70
2024/01/07 01:28:39;;;;;;;24.83;15.27;;;5.50;72.90;;;;;;5082646;28;20020;-70
2024/01/07 01:31:05;;;;;;;25.23;14.07;;;5.60;72.90;;;;;;5095743;28;20024;-70
2024/01/07 01:33:31;;;;;;;25.40;14.80;;;5.50;72.90;;;;;;5095828;28;20043;-70
2024/01/07 01:35:56;;;;;;;23.67;14.30;;;5.50;72.90;;;;;;5094072;28;20403;-70
2024/01/07 01:38:22;;;;;;;21.73;13.53;;;5.50;72.80;;;;;;5095796;28;20502;-70
2024/01/07 01:40:55;;;;;;;23.60;14.47;;;5.50;72.80;;;;;;5077728;28;20127;-70
2024/01/07 01:43:28;;;;;;;21.47;13.10;;;5.40;72.80;;;;;;5092823;28;20524;-70
2024/01/07 01:45:55;;;;;;;25.27;14.57;;;5.50;72.80;;;;;;5092442;28;20106;-70
2024/01/07 01:48:22;;;;;;;24.00;14.43;;;5.50;72.80;;;;;;5084557;28;20353;-70
2024/01/07 01:50:48;;;;;;;25.80;15.50;;;5.50;72.90;;;;;;5095712;28;20030;-70
2024/01/07 01:53:15;;;;;;;27.23;14.67;;;5.40;72.80;;;;;;5095492;28;20028;-70
2024/01/07 01:55:45;;;;;;;24.37;14.57;;;5.40;72.80;;;;;;5089579;28;20104;-70
2024/01/07 01:58:13;;;;;;;23.97;15.20;;;5.40;72.90;;;;;;5085115;28;20504;-70
2024/01/07 02:00:40;;;;;;;24.20;14.13;;;5.40;72.90;;;;;;5090635;28;20073;-70
2024/01/07 02:03:05;;;;;;;25.43;14.27;;;5.50;73.00;;;;;;5095275;28;20433;-70
2024/01/07 02:05:31;;;;;;;22.93;14.90;;;5.40;72.90;;;;;;5094989;28;20085;-70
2024/01/07 02:07:58;;;;;;;26.03;15.33;;;5.40;73.00;;;;;;5093682;28;20024;-70
2024/01/07 02:10:24;;;;;;;25.37;14.67;;;5.40;73.00;;;;;;5076977;28;20414;-70
2024/01/07 02:12:50;;;;;;;24.83;14.90;;;5.40;73.70;;;;;;5092607;28;20032;-70
2024/01/07 02:15:15;;;;;;;27.97;15.60;;;5.30;73.10;;;;;;5093911;28;20016;-70
2024/01/07 02:17:41;;;;;;;26.57;15.13;;;5.30;73.20;;;;;;5094470;28;20042;-70
2024/01/07 02:20:08;;;;;;;26.83;15.17;;;5.30;73.30;;;;;;5100065;28;20038;-70
2024/01/07 02:22:34;;;;;;;29.27;14.83;;;5.30;73.40;;;;;;5094762;28;20310;-70
2024/01/07 02:24:59;;;;;;;24.70;14.27;;;5.30;73.40;;;;;;5094065;28;20020;-70
2024/01/07 02:27:25;;;;;;;25.43;15.30;;;5.30;73.50;;;;;;5101173;28;20028;-70
2024/01/07 02:29:52;;;;;;;27.03;14.83;;;5.30;73.50;;;;;;5103586;28;20433;-70
2024/01/07 02:32:17;;;;;;;28.17;14.97;;;5.20;73.50;;;;;;5093466;28;20030;-70
2024/01/07 02:34:44;;;;;;;25.67;15.00;;;5.20;73.60;;;;;;5101099;28;20043;-70
2024/01/07 02:37:09;;;;;;;24.80;14.67;;;5.20;73.60;;;;;;5093812;28;20047;-70
2024/01/07 02:39:35;;;;;;;25.10;14.40;;;5.20;73.60;;;;;;5093670;28;20059;-70
2024/01/07 02:42:01;;;;;;;24.67;14.17;;;5.20;73.60;;;;;;5088606;28;20065;-70
2024/01/07 02:44:27;;;;;;;26.07;14.27;;;5.30;73.70;;;;;;5092823;28;20024;-70
2024/01/07 02:46:53;;;;;;;22.23;13.73;;;5.20;73.60;;;;;;5093428;28;20141;-70
2024/01/07 02:49:19;;;;;;;21.20;13.13;;;5.20;73.60;;;;;;5092158;28;20035;-70
2024/01/07 02:51:49;;;;;;;22.77;14.20;;;5.20;73.60;;;;;;5093161;28;20028;-70
2024/01/07 02:54:15;;;;;;;23.47;13.47;;;5.20;73.70;;;;;;5093633;28;20361;-70
2024/01/07 02:56:41;;;;;;;20.27;11.73;;;5.20;73.70;;;;;;5093973;28;20024;-70
2024/01/07 02:59:07;;;;;;;23.03;13.93;;;5.20;73.70;;;;;;5091780;28;20028;-70
2024/01/07 03:01:39;;;;;;;23.37;13.47;;;5.20;73.60;;;;;;5090897;28;20035;-70
2024/01/07 03:04:06;;;;;;;23.27;13.33;;;5.20;73.60;;;;;;5092999;28;20537;-70
2024/01/07 03:06:32;;;;;;;23.03;13.73;;;5.20;73.60;;;;;;5108647;28;20020;-70
2024/01/07 03:08:58;;;;;;;21.10;12.40;;;5.20;73.60;;;;;;5092464;28;20016;-70
2024/01/07 03:11:24;;;;;;;20.87;13.43;;;5.20;73.60;;;;;;5092229;28;20063;-70
2024/01/07 03:13:49;;;;;;;22.47;13.30;;;5.20;73.50;;;;;;5092834;28;20043;-70
2024/01/07 03:16:22;;;;;;;21.90;12.70;;;5.20;73.60;;;;;;5091953;28;20032;-70
2024/01/07 03:18:48;;;;;;;20.53;12.80;;;5.20;73.60;;;;;;5093210;28;20052;-70
2024/01/07 03:21:22;;;;;;;19.70;11.73;;;5.20;73.60;;;;;;5093296;28;20062;-70
2024/01/07 03:23:49;;;;;;;19.43;12.47;;;5.20;73.60;;;;;;5092372;28;20062;-70
2024/01/07 03:26:16;;;;;;;19.90;11.73;;;5.20;73.60;;;;;;5092504;28;20028;-70
2024/01/07 03:28:42;;;;;;;18.37;11.33;;;5.20;73.60;;;;;;5108562;28;20378;-70
2024/01/07 03:31:15;;;;;;;18.53;11.03;;;5.20;73.60;;;;;;5093010;28;20024;-70
2024/01/07 03:33:42;;;;;;;17.30;10.43;;;5.20;73.50;;;;;;5088241;28;20028;-70
2024/01/07 03:36:12;;;;;;;18.33;10.10;;;5.20;73.40;;;;;;5093919;28;20067;-70
2024/01/07 03:38:39;;;;;;;16.67;10.03;;;5.10;73.30;;;;;;5093782;28;20039;-70
2024/01/07 03:41:05;;;;;;;16.37;10.23;;;5.10;73.40;;;;;;5092452;28;20350;-70
2024/01/07 03:43:31;;;;;;;17.17;9.90;;;5.10;73.40;;;;;;5093872;28;20058;-70
2024/01/07 03:45:57;;;;;;;16.23;10.13;;;5.10;73.40;;;;;;5092715;28;20052;-70
2024/01/07 03:48:23;;;;;;;17.33;10.27;;;5.10;73.30;;;;;;5094062;28;20022;-70
2024/01/07 03:50:49;;;;;;;16.17;9.73;;;5.10;73.30;;;;;;5093492;28;20113;-70
2024/01/07 03:53:15;;;;;;;15.20;9.43;;;5.10;73.30;;;;;;5093579;28;20035;-70
2024/01/07 03:55:41;;;;;;;16.33;10.43;;;5.10;73.40;;;;;;5093475;28;20042;-70
2024/01/07 03:58:07;;;;;;;17.43;10.43;;;5.10;73.10;;;;;;5092149;28;20036;-70
2024/01/07 04:00:33;;;;;;;14.63;10.03;;;5.10;73.10;;;;;;5095547;28;20062;-70
2024/01/07 04:02:59;;;;;;;16.97;10.67;;;5.10;73.10;;;;;;5107732;28;20025;-70
2024/01/07 04:05:25;;;;;;;17.33;10.90;;;5.10;73.10;;;;;;5092162;28;20031;-70
2024/01/07 04:07:51;;;;;;;15.40;9.30;;;5.10;73.10;;;;;;5092902;28;20138;-70
2024/01/07 04:10:17;;;;;;;15.20;10.27;;;5.10;73.00;;;;;;5096093;28;20031;-70
2024/01/07 04:12:43;;;;;;;15.70;10.67;;;5.00;73.00;;;;;;5083940;28;20057;-70
2024/01/07 04:15:10;;;;;;;16.00;10.23;;;5.00;73.00;;;;;;5095688;28;20019;-70
2024/01/07 04:17:36;;;;;;;14.43;9.70;;;5.00;73.00;;;;;;5106504;28;20028;-70
2024/01/07 04:20:02;;;;;;;16.40;10.40;;;5.00;73.00;;;;;;5092914;28;20514;-70
2024/01/07 04:22:28;;;;;;;16.53;10.43;;;5.00;73.00;;;;;;5096368;28;20414;-70
2024/01/07 04:24:53;;;;;;;18.83;11.60;;;5.00;73.00;;;;;;5094955;28;20016;-70
2024/01/07 04:27:19;;;;;;;16.73;11.10;;;5.00;73.00;;;;;;5078435;28;20024;-70
2024/01/07 04:29:45;;;;;;;17.70;11.07;;;5.00;73.00;;;;;;5096349;28;20028;-70
2024/01/07 04:32:10;;;;;;;15.17;10.10;;;5.00;73.00;;;;;;5096054;28;20105;-70
2024/01/07 04:34:36;;;;;;;16.07;10.53;;;4.90;72.90;;;;;;5096282;28;20386;-70
2024/01/07 04:37:02;;;;;;;16.63;10.67;;;5.00;73.00;;;;;;5096103;28;20500;-70
2024/01/07 04:39:28;;;;;;;17.57;10.63;;;4.90;72.90;;;;;;5096508;28;20067;-70
2024/01/07 04:41:54;;;;;;;15.50;10.73;;;5.00;72.90;;;;;;5099053;28;20050;-70
2024/01/07 04:44:19;;;;;;;16.90;11.13;;;5.00;72.90;;;;;;5092795;28;20035;-70
2024/01/07 04:46:47;;;;;;;17.20;11.97;;;5.00;72.80;;;;;;5093721;28;20028;-70
2024/01/07 04:49:13;;;;;;;17.53;11.53;;;4.90;72.80;;;;;;5078221;28;20032;-70
2024/01/07 04:51:39;;;;;;;17.27;11.00;;;5.00;72.80;;;;;;5093108;28;20038;-70
2024/01/07 04:54:05;;;;;;;16.37;11.27;;;4.90;72.70;;;;;;5095695;28;20024;-70
2024/01/07 04:56:32;;;;;;;19.23;11.30;;;4.90;72.80;;;;;;5099713;28;20028;-70
2024/01/07 04:58:58;;;;;;;16.17;11.40;;;4.90;72.70;;;;;;5095291;28;20024;-70
2024/01/07 05:01:23;;;;;;;16.73;10.40;;;4.80;72.70;;;;;;5095472;28;20032;-70
2024/01/07 05:03:49;;;;;;;18.07;11.33;;;4.80;72.60;;;;;;5083883;28;20107;-70
2024/01/07 05:06:15;;;;;;;19.13;11.70;;;4.90;72.60;;;;;;5070727;28;20120;-70
2024/01/07 05:08:41;;;;;;;15.93;10.07;;;4.80;72.50;;;;;;5090032;28;20091;-69
2024/01/07 05:11:08;;;;;;;17.60;10.80;;;4.90;72.60;;;;;;5089640;28;20031;-70
2024/01/07 05:13:34;;;;;;;16.67;10.77;;;4.90;72.60;;;;;;5074565;28;20029;-70
2024/01/07 05:16:00;;;;;;;18.93;11.07;;;4.90;72.60;;;;;;5087407;28;20028;-70
2024/01/07 05:18:26;;;;;;;18.50;11.33;;;4.90;72.50;;;;;;5089647;28;20024;-70
2024/01/07 05:20:52;;;;;;;17.47;11.63;;;4.90;72.40;;;;;;5089232;28;20077;-70
2024/01/07 05:23:18;;;;;;;16.30;10.57;;;4.80;72.40;;;;;;5090756;28;20064;-70
2024/01/07 05:25:44;;;;;;;16.77;10.13;;;4.90;72.40;;;;;;5098280;28;20050;-70
2024/01/07 05:28:14;;;;;;;15.90;10.77;;;4.80;72.30;;;;;;5092146;28;20418;-70
2024/01/07 05:30:43;;;;;;;16.00;10.47;;;4.90;72.30;;;;;;5078516;28;20028;-70
2024/01/07 05:33:09;;;;;;;18.30;10.47;;;4.80;72.20;;;;;;5088096;28;20127;-69
2024/01/07 05:35:35;;;;;;;16.80;10.00;;;4.80;72.20;;;;;;5090889;28;20042;-70
2024/01/07 05:38:01;;;;;;;17.40;10.63;;;4.80;72.20;;;;;;5091334;28;20024;-70
2024/01/07 05:40:27;;;;;;;15.97;10.30;;;4.80;72.20;;;;;;5095519;28;20035;-69
2024/01/07 05:42:53;;;;;;;16.37;10.40;;;4.70;72.10;;;;;;5095859;28;20413;-70
2024/01/07 05:45:18;;;;;;;13.17;9.77;;;4.70;72.00;;;;;;5098772;28;20037;-70
2024/01/07 05:47:44;;;;;;;15.43;10.47;;;4.70;72.00;;;;;;5093094;28;20112;-70
2024/01/07 05:50:10;;;;;;;16.50;10.97;;;4.70;72.00;;;;;;5093407;28;20432;-70
2024/01/07 05:52:36;;;;;;;14.70;9.83;;;4.70;72.00;;;;;;5095760;28;20027;-69
2024/01/07 05:55:02;;;;;;;15.37;9.93;;;4.80;72.00;;;;;;5094921;28;20024;-70
2024/01/07 05:57:28;;;;;;;15.17;10.57;;;4.80;71.90;;;;;;5095728;28;20028;-70
2024/01/07 05:59:54;;;;;;;15.50;10.67;;;4.70;71.80;;;;;;5095072;28;20027;-70
2024/01/07 06:02:22;;;;;;;14.90;10.27;;;4.80;72.40;;;;;;5094856;28;20016;-70
2024/01/07 06:04:48;;;;;;;15.13;9.97;;;4.80;71.70;;;;;;5095681;28;20031;-69
2024/01/07 06:07:14;;;;;;;15.10;10.93;;;4.80;71.70;;;;;;5095417;28;20035;-69
2024/01/07 06:09:39;;;;;;;15.10;10.20;;;4.80;71.70;;;;;;5091398;28;20479;-69
2024/01/07 06:12:05;;;;;;;15.13;10.37;;;4.80;71.70;;;;;;5094217;28;20040;-69
2024/01/07 06:14:31;;;;;;;15.00;10.53;;;4.80;71.70;;;;;;5100228;28;20032;-68
2024/01/07 06:16:57;;;;;;;14.90;9.47;;;4.70;71.70;;;;;;5094204;28;20108;-69
2024/01/07 06:19:23;;;;;;;16.23;9.67;;;4.70;71.70;;;;;;5095347;28;20060;-69
2024/01/07 06:21:48;;;;;;;14.17;9.33;;;4.70;71.70;;;;;;5094841;28;20154;-69
2024/01/07 06:24:14;;;;;;;13.67;9.40;;;4.70;71.60;;;;;;5095141;28;20365;-69
2024/01/07 06:26:40;;;;;;;16.43;9.77;;;4.70;71.60;;;;;;5093895;28;20107;-69
2024/01/07 06:29:06;;;;;;;13.53;8.97;;;4.70;71.50;;;;;;5094733;28;20022;-70
2024/01/07 06:31:32;;;;;;;15.90;9.90;;;4.70;71.40;;;;;;5095116;28;20028;-70
2024/01/07 06:33:57;;;;;;;14.23;9.70;;;4.70;71.40;;;;;;5092793;28;20032;-69
2024/01/07 06:36:25;;;;;;;15.00;9.43;;;4.70;71.40;;;;;;5092095;28;20038;-70
2024/01/07 06:38:50;;;;;;;14.87;10.40;;;4.70;71.40;;;;;;5094374;28;20028;-68
2024/01/07 06:41:16;;;;;;;15.90;9.93;;;4.60;71.40;;;;;;5095095;28;20429;-69
2024/01/07 06:43:42;;;;;;;16.17;9.77;;;4.60;71.40;;;;;;5095232;28;20084;-70
2024/01/07 06:46:08;;;;;;;15.43;9.40;;;4.60;71.30;;;;;;5095003;28;20063;-70
2024/01/07 06:48:33;;;;;;;15.20;9.73;;;4.70;71.30;;;;;;5088095;28;20028;-70
2024/01/07 06:50:59;;;;;;;14.93;8.73;;;4.60;71.30;;;;;;5086415;28;20444;-70
2024/01/07 06:53:25;;;;;;;13.40;8.90;;;4.60;71.30;;;;;;5094381;28;20028;-69
2024/01/07 06:55:51;;;;;;;14.53;9.43;;;4.60;71.30;;;;;;5094180;28;20024;-70
2024/01/07 06:58:16;;;;;;;15.17;9.73;;;4.60;71.30;;;;;;5094322;28;20444;-69
2024/01/07 07:00:42;;;;;;;14.37;9.27;;;4.60;71.30;;;;;;5096999;28;20025;-70
2024/01/07 07:03:08;;;;;;;15.17;9.40;;;4.60;71.20;;;;;;5091349;28;20026;-70
2024/01/07 07:05:34;;;;;;;16.23;9.70;;;4.60;71.20;;;;;;5093127;28;20356;-70
2024/01/07 07:08:01;;;;;;;15.97;10.13;;;4.50;71.00;;;;;;5076313;28;20016;-69
2024/01/07 07:10:27;;;;;;;13.40;8.83;;;4.60;71.10;;;;;;5095058;28;20043;-69
2024/01/07 07:12:52;;;;;;;15.30;9.77;;;4.50;71.00;;;;;;5094919;28;20028;-69
2024/01/07 07:15:18;;;;;;;15.70;9.10;;;4.50;71.00;;;;;;5094166;28;20043;-69
2024/01/07 07:17:44;;;;;;;15.80;9.70;;;4.50;71.00;;;;;;5094169;28;20036;-69
2024/01/07 07:20:11;;;;;;;15.27;9.40;;;4.50;70.90;;;;;;5093043;28;20028;-69
2024/01/07 07:22:37;;;;;;;14.10;8.70;;;4.50;71.00;;;;;;5102841;28;20401;-68
2024/01/07 07:25:03;;;;;;;14.57;9.27;;;4.60;71.00;;;;;;5092937;28;20054;-69
2024/01/07 07:27:29;;;;;;;13.87;9.13;;;4.60;71.00;;;;;;5092563;28;20069;-69
2024/01/07 07:29:54;;;;;;;13.97;8.80;;;4.70;70.90;;;;;;5089306;28;20406;-69
2024/01/07 07:32:20;;;;;;;15.37;9.47;;;4.80;70.80;;;;;;5093909;28;20374;-69
2024/01/07 07:34:47;;;;;;;14.63;9.23;;;4.70;70.60;;;;;;5091962;28;20070;-69
2024/01/07 07:37:13;;;;;;;13.43;8.40;;;4.70;70.60;;;;;;5094126;28;20028;-68
2024/01/07 07:39:39;;;;;;;13.33;8.70;;;4.70;70.50;;;;;;5093806;28;20039;-69
2024/01/07 07:42:04;;;;;;;15.63;9.07;;;4.70;70.40;;;;;;5093965;28;20048;-69
2024/01/07 07:44:32;;;;;;;17.67;10.13;;;4.70;70.40;;;;;;5092001;28;20035;-68
2024/01/07 07:46:57;;;;;;;12.67;7.93;;;4.70;70.40;;;;;;5093372;28;20024;-69
2024/01/07 07:49:23;;;;;;;12.67;8.67;;;4.60;70.40;;;;;;5091995;28;20344;-68
2024/01/07 07:51:49;;;;;;;14.10;8.93;;;4.60;70.40;;;;;;5092135;28;20040;-69
2024/01/07 07:54:14;;;;;;;13.90;8.73;;;4.60;70.40;;;;;;5093492;28;20055;-68
2024/01/07 07:56:40;;;;;;;11.50;7.93;;;4.60;70.30;;;;;;5093083;28;20040;-68
2024/01/07 07:59:06;;;;;;;11.77;7.87;;;4.60;70.30;;;;;;5101880;28;20028;-69
2024/01/07 08:01:34;;;;;;;12.77;8.00;;;4.60;70.20;;;;;;5093642;28;20028;-69
2024/01/07 08:04:00;;;;;;;11.40;7.70;;;4.60;70.20;;;;;;5093642;28;20016;-69
2024/01/07 08:06:25;;;;;;;13.17;8.40;;;4.50;70.10;;;;;;5093592;28;20032;-69
2024/01/07 08:08:51;;;;;;;10.77;8.07;;;4.50;70.10;;;;;;5092735;28;20074;-69
2024/01/07 08:11:18;;;;;;;12.20;7.67;;;4.50;70.10;;;;;;5093429;28;20043;-69
2024/01/07 08:13:43;;;;;;;11.53;7.90;;;4.50;70.10;;;;;;5093191;28;20036;-68
2024/01/07 08:16:10;;;;;;;11.53;7.80;;;4.50;70.10;;;;;;5092538;28;20024;-69
2024/01/07 08:18:35;;;;;;;11.93;7.93;;;4.50;70.00;;;;;;5090822;28;20020;-68
2024/01/07 08:21:01;;;;;;;12.03;7.83;;;4.50;70.00;;;;;;5094374;28;20402;-68
2024/01/07 08:23:27;;;;;;;11.87;7.70;;;4.40;69.90;;;;;;5093343;28;20035;-69
2024/01/07 08:25:53;;;;;;;12.10;7.67;;;4.40;69.90;;;;;;5090720;28;20024;-69
2024/01/07 08:28:20;;;;;;;10.83;6.80;;;4.40;69.90;;;;;;5092473;28;20490;-69
2024/01/07 08:30:46;;;;;;;11.87;7.30;;;4.40;69.90;;;;;;5093499;28;20124;-69
2024/01/07 08:33:12;;;;;;;10.53;7.20;;;4.40;69.90;;;;;;5102332;28;20511;-69
2024/01/07 08:35:38;;;;;;;10.63;6.30;;;4.40;69.80;;;;;;5090214;28;20112;-69
2024/01/07 08:38:04;;;;;;;11.43;7.33;;;4.40;69.90;;;;;;5089806;28;20039;-69
2024/01/07 08:40:30;;;;;;;11.40;6.90;;;4.40;69.80;;;;;;5093319;28;20024;-69
2024/01/07 08:42:56;;;;;;;11.07;6.80;;;4.40;69.90;;;;;;5092193;28;20024;-68
2024/01/07 08:45:22;;;;;;;11.63;7.20;;;4.40;69.90;;;;;;5090741;28;20034;-69
2024/01/07 08:47:48;;;;;;;10.57;7.03;;;4.40;69.70;;;;;;5093156;28;20027;-68
2024/01/07 08:50:14;;;;;;;11.77;7.03;;;4.30;69.70;;;;;;5091811;28;20024;-69
2024/01/07 08:52:40;;;;;;;9.90;6.10;;;4.30;69.60;;;;;;5092151;28;20024;-69
2024/01/07 08:55:07;;;;;;;11.63;6.77;;;4.40;69.60;;;;;;5092282;28;20048;-69
2024/01/07 08:57:33;;;;;;;10.63;6.70;;;4.40;69.50;;;;;;5094350;28;20034;-69
2024/01/07 08:59:59;;;;;;;11.97;6.80;;;4.40;69.40;;;;;;5078719;28;20103;-69
2024/01/07 09:02:25;;;;;;;11.33;6.83;;;4.40;69.20;;;;;;5096725;28;20032;-68
2024/01/07 09:04:52;;;;;;;11.30;7.40;;;4.30;69.20;;;;;;5095438;28;20031;-69
2024/01/07 09:07:19;;;;;;;10.83;7.13;;;4.30;69.10;;;;;;5095211;28;20024;-69
2024/01/07 09:09:44;;;;;;;11.23;6.70;;;4.30;69.10;;;;;;5077466;28;20016;-69
2024/01/07 09:12:10;;;;;;;12.83;6.97;;;4.30;69.10;;;;;;5078504;28;20096;-69
2024/01/07 09:14:40;;;;;;;11.20;7.10;;;4.30;69.00;;;;;;5095449;28;20032;-69
2024/01/07 09:17:05;;;;;;;13.33;7.07;;;4.30;68.90;;;;;;5093159;28;20032;-69
2024/01/07 09:19:31;;;;;;;11.13;6.90;;;4.30;68.90;;;;;;5095359;28;20035;-69
2024/01/07 09:21:57;;;;;;;11.07;6.50;;;4.30;68.80;;;;;;5094418;28;20035;-70
2024/01/07 09:24:23;;;;;;;11.67;7.20;;;4.30;68.70;;;;;;5078334;28;20036;-69
2024/01/07 09:26:48;;;;;;;12.43;6.50;;;4.30;68.60;;;;;;5094867;28;20024;-69
2024/01/07 09:29:14;;;;;;;9.83;6.20;;;4.30;68.50;;;;;;5106552;28;20039;-69
2024/01/07 09:31:40;;;;;;;13.07;6.83;;;4.30;68.50;;;;;;5096234;28;20024;-69
2024/01/07 09:34:06;;;;;;;11.57;7.07;;;4.30;68.40;;;;;;5100042;28;20472;-69
2024/01/07 09:36:33;;;;;;;11.00;6.73;;;4.30;68.50;;;;;;5095208;28;20028;-69
2024/01/07 09:38:59;;;;;;;10.47;6.17;;;4.30;68.40;;;;;;5095934;28;20099;-69
2024/01/07 09:41:24;;;;;;;12.43;6.57;;;4.30;68.40;;;;;;5096168;28;20123;-68
2024/01/07 09:43:54;;;;;;;11.67;6.40;;;4.40;68.40;;;;;;5096182;28;20027;-68
2024/01/07 09:46:20;;;;;;;10.10;5.90;;;4.40;68.30;;;;;;5095372;28;20047;-69
2024/01/07 09:48:46;;;;;;;11.50;6.67;;;4.40;68.10;;;;;;5095674;28;20032;-68
2024/01/07 09:51:12;;;;;;;10.63;6.63;;;4.40;68.10;;;;;;5094798;28;20326;-68
2024/01/07 09:53:42;;;;;;;10.70;6.00;;;4.40;68.00;;;;;;5095654;28;20111;-68
2024/01/07 09:56:18;;;;;;;9.80;5.83;;;4.40;68.00;;;;;;5096816;28;20028;-69
2024/01/07 09:58:47;;;;;;;11.20;5.77;;;4.40;67.90;;;;;;5089167;28;20055;-69
2024/01/07 10:01:14;;;;;;;13.00;6.10;;;4.40;67.80;;;;;;5089559;28;20028;-69
2024/01/07 10:03:39;;;;;;;10.07;5.63;;;4.40;67.70;;;;;;5102437;28;20024;-68
2024/01/07 10:06:05;;;;;;;11.30;7.03;;;4.40;67.70;;;;;;5090183;28;20043;-69
2024/01/07 10:08:32;;;;;;;11.30;5.53;;;4.40;67.70;;;;;;5096868;28;20435;-69
2024/01/07 10:10:58;;;;;;;9.70;5.30;;;4.40;67.60;;;;;;5086396;28;20021;-69
2024/01/07 10:13:24;;;;;;;10.77;5.83;;;4.50;67.60;;;;;;5088790;28;20361;-69
2024/01/07 10:15:50;;;;;;;9.33;5.63;;;4.50;67.50;;;;;;5094839;28;20098;-69
2024/01/07 10:18:15;;;;;;;12.53;5.43;;;4.50;67.40;;;;;;5081603;28;20415;-68
2024/01/07 10:20:41;;;;;;;8.63;4.60;;;4.50;67.10;;;;;;5088696;28;20031;-68
2024/01/07 10:23:08;;;;;;;8.60;5.17;;;4.50;67.20;;;;;;5083058;28;20037;-69
2024/01/07 10:25:36;;;;;;;8.30;4.50;;;4.50;67.10;;;;;;5083161;28;20033;-69
2024/01/07 10:28:02;;;;;;;8.90;5.13;;;4.60;67.00;;;;;;5086576;28;20029;-70
2024/01/07 10:30:31;;;;;;;9.00;4.80;;;4.60;66.80;;;;;;5088397;28;20035;-70
2024/01/07 10:33:00;;;;;;;9.60;5.07;;;4.70;66.60;;;;;;5085038;28;20031;-69
2024/01/07 10:35:33;;;;;;;8.67;4.90;;;4.70;66.40;;;;;;5085353;28;20034;-70
2024/01/07 10:38:02;;;;;;;9.73;4.80;;;4.80;66.40;;;;;;5073885;28;20101;-71
2024/01/07 10:40:30;;;;;;;8.93;4.53;;;4.80;66.20;;;;;;5083012;28;20352;-70
2024/01/07 10:42:56;;;;;;;8.60;4.60;;;4.90;65.90;;;;;;5082334;28;20032;-70
2024/01/07 10:45:23;;;;;;;9.90;4.60;;;4.80;65.60;;;;;;5091275;28;20044;-70
2024/01/07 10:47:53;;;;;;;9.00;4.80;;;4.80;65.50;;;;;;5087824;28;20407;-70
2024/01/07 10:50:19;;;;;;;8.13;4.03;;;4.90;65.40;;;;;;5077261;28;20424;-70
2024/01/07 10:53:04;;;;;;;8.30;4.50;;;4.90;65.30;;;;;;5065263;28;20028;-70
2024/01/07 10:55:36;;;;;;;7.63;3.80;;;4.90;65.10;;;;;;5080599;28;20023;-70
2024/01/07 10:58:03;;;;;;;9.38;4.63;;;4.90;65.20;;;;;;5081195;28;20434;-69
2024/01/07 11:00:31;;;;;;;7.63;4.23;;;4.90;65.10;;;;;;5089907;28;20047;-69
2024/01/07 11:03:10;;;;;;;7.60;4.30;;;4.90;64.90;;;;;;5089740;28;20020;-69
2024/01/07 11:06:01;;;;;;;7.40;4.00;;;4.90;64.70;;;;;;5079638;28;20032;-69
2024/01/07 11:08:55;;;;;;;9.27;4.33;;;5.00;64.60;;;;;;5083986;28;20348;-69
2024/01/07 11:11:42;;;;;;;7.60;4.00;;;5.00;64.50;;;;;;5088650;28;20040;-69
2024/01/07 11:14:39;;;;;;;7.87;3.77;;;5.00;64.60;;;;;;5092366;28;20044;-70
2024/01/07 11:17:08;;;;;;;7.57;3.50;;;5.00;64.50;;;;;;5089893;28;20938;-69
2024/01/07 11:19:38;;;;;;;8.17;3.80;;;5.10;64.30;;;;;;5077352;28;20024;-70
2024/01/07 11:22:29;;;;;;;7.63;3.53;;;5.10;64.10;;;;;;5078078;28;20032;-70
2024/01/07 11:24:56;;;;;;;7.43;3.85;;;5.20;63.80;;;;;;5087486;28;20032;-69
2024/01/07 11:27:28;;;;;;;7.77;3.83;;;5.20;63.80;;;;;;5080227;28;20056;-69
2024/01/07 11:30:04;;;;;;;7.40;3.80;;;5.20;63.70;;;;;;5079814;28;20032;-69
2024/01/07 11:32:30;;;;;;;7.20;3.50;;;5.20;63.50;;;;;;5075513;28;20024;-69
2024/01/07 11:34:59;;;;;;;8.37;3.63;;;5.20;63.30;;;;;;5079313;28;20020;-68
2024/01/07 11:37:25;;;;;;;6.63;3.40;;;5.20;63.20;;;;;;5083257;28;20024;-69
2024/01/07 11:39:55;;;;;;;7.10;3.07;;;5.40;63.30;;;;;;5085849;28;20024;-69
2024/01/07 11:42:22;;;;;;;6.27;3.17;;;5.50;62.90;;;;;;5086909;28;20036;-69
2024/01/07 11:44:53;;;;;;;6.63;2.73;;;5.50;62.70;;;;;;5080335;28;20029;-68
2024/01/07 11:47:20;;;;;;;7.23;3.27;;;5.60;62.60;;;;;;5072112;28;20020;-68
2024/01/07 11:49:46;;;;;;;7.00;2.80;;;5.60;62.40;;;;;;5086715;28;20942;-69
2024/01/07 11:52:13;;;;;;;7.50;2.93;;;5.70;62.40;;;;;;5089230;28;20016;-68
2024/01/07 11:54:39;;;;;;;5.50;2.80;;;5.70;62.20;;;;;;5085133;28;20020;-69
2024/01/07 11:57:09;;;;;;;6.50;2.30;;;5.70;62.10;;;;;;5093320;28;20475;-69
2024/01/07 11:59:36;;;;;;;5.50;2.47;;;5.70;61.90;;;;;;5084991;28;20024;-69
2024/01/07 12:02:06;;;;;;;4.47;2.20;;;5.70;61.60;;;;;;5089577;28;20461;-69
2024/01/07 12:04:33;;;;;;;5.23;2.10;;;5.60;61.30;;;;;;5082549;28;20020;-68
2024/01/07 12:06:59;;;;;;;5.23;2.20;;;5.50;61.10;;;;;;5080478;28;20111;-68
2024/01/07 12:09:25;;;;;;;4.80;1.73;;;5.40;60.10;;;;;;5081236;28;20025;-68
2024/01/07 12:11:52;;;;;;;4.37;2.23;;;5.30;60.40;;;;;;5083181;28;20032;-68
2024/01/07 12:14:19;;;;;;;4.17;1.90;;;5.20;60.40;;;;;;5089435;28;20028;-68
2024/01/07 12:16:45;;;;;;;4.20;1.67;;;5.10;60.10;;;;;;5088040;28;20032;-70
2024/01/07 12:19:11;;;;;;;4.73;2.13;;;5.10;60.10;;;;;;5092551;28;20036;-70
2024/01/07 12:21:38;;;;;;;4.23;1.87;;;5.10;60.10;;;;;;5098369;28;20033;-69
2024/01/07 12:24:04;;;;;;;3.83;1.97;;;5.10;60.20;;;;;;5091572;28;20099;-69
2024/01/07 12:26:32;;;;;;;4.20;1.97;;;5.00;60.00;;;;;;5075722;28;20020;-69
2024/01/07 12:29:03;;;;;;;6.97;2.20;;;5.00;60.00;;;;;;5096676;28;20512;-69
2024/01/07 12:31:32;;;;;;;4.73;2.00;;;5.10;59.90;;;;;;5079778;28;20081;-69
2024/01/07 12:33:58;;;;;;;4.50;1.80;;;5.10;59.90;;;;;;5097935;28;20036;-69
2024/01/07 12:36:24;;;;;;;5.60;2.27;;;5.10;59.80;;;;;;5086585;28;20169;-69
2024/01/07 12:38:53;;;;;;;4.33;1.90;;;5.20;59.80;;;;;;5097879;28;20020;-70
2024/01/07 12:41:20;;;;;;;4.60;2.00;;;5.10;59.60;;;;;;5096778;28;20082;-69